默认 日期 大小 文件数 浏览量 最新下载 xml
circus磁力链接相关资源由用户搜索指令自动获取,结果来源于网络,本站不存储任何资料,亦不承担任何责任,请于24小时内删除,搜索到5067个磁力,显示前4000条数据,用时6ms。
    {"Downloaded from www.ETTV.tv .txt": 193, "The.Circus.S03E04.HDTV.x264-aAF[ettv].mkv": 163580737}
创建时间: 2018-12-23 06:10:10 大小:156 MB 文件数量:2 热度:5 最近下载:2022-04-23 05:59:30
    ... Arrival 1.jpg": 1064272, "Space Circus - Fantastic Arrival 2.jpg": 455007 ... , "Space Circus - Fantastic Arrival back.jpg": 457894 ... , "Space Circus - Fantastic Arrival front.jpg": 551712 ...
创建时间: 2018-12-23 06:23:22 大小:318.56 MB 文件数量:8 热度:8 最近下载:2025-04-19 00:40:04
    ... "v_DigitalStrip.ttf": 43372}, "[HorribleSubs] Karakuri Circus - 01 [720p].ass": 28316, "[ ... HorribleSubs] Karakuri Circus - 01 [720p].mkv": 333024834, "[ ... HorribleSubs] Karakuri Circus - 02 [720p].ass": 33520, "[ ...
创建时间: 2018-12-23 06:35:32 大小:3.55 GB 文件数量:28 热度:6 最近下载:2022-04-23 06:27:26
    ... Different Skies.flac": 49884166, "Night Circus - Different Skies.m3u": 480, "Night ...
创建时间: 2018-12-23 07:28:13 大小:326.21 MB 文件数量:12 热度:5 最近下载:2022-04-23 06:56:30
    {"front.jpg": 169191, "03 Cold Joker.mp3": 5277123, "06 Weed World.mp3": 4183115, "04 Hue an' Dye.mp3": 5494464, "10 Dr. Pompous.mp3": 6875822, "05 I'm Going In.mp3": 5662694, "13 All the Rage.mp3": 6307399, "08 Girl in Space.mp3": 6728492, "07 A Bumbling ...
创建时间: 2018-12-23 07:43:55 大小:89.88 MB 文件数量:17 热度:7 最近下载:2025-08-01 02:50:06
    ... [720p].mkv": 368028058, "[KANSAI] Karakuri Circus - 02 [720p].mkv": 292790842, "[KANSAI ... ] Karakuri Circus - 03 [720p].mkv": 308981532, "[KANSAI ... ] Karakuri Circus - 04 [720p].mkv": 421688773, "[ ...
创建时间: 2018-12-23 10:32:28 大小:3.53 GB 文件数量:10 热度:6 最近下载:2022-04-23 06:25:09
    {"Subs": {"2_Eng.srt": 110191}, "RARBG.txt": 30, "The.Circus.S03E05.WEBRip.x264-ION10.mp4": 581790657}
创建时间: 2018-12-23 13:20:09 大小:554.94 MB 文件数量:3 热度:5 最近下载:2022-04-23 06:49:48
    ... Toxic.mp3": 5838416, "02 Circus.mp3": 5593654, "13 Everytime ... ).mp3": 3783296, "19 'Electric Circus' Segue (Interlude).mp3": 3574731, ... "27 Womanizer, Circus Reprise - The Bow.mp3": ... ).mp3": 6992760, "The Circus Starring Britney Spears Tour Setlist ...
创建时间: 2018-12-23 13:55:04 大小:124.68 MB 文件数量:27 热度:5 最近下载:2022-04-23 06:35:42
    ... "Proof": {"proof-holy.flying.circus.2011.bdrip.x264-sprinter.jpg ... }, "Sample": {"sample-holy.flying.circus.2011.bdrip.x264-sprinter.mkv ... mkv": 634061526, "holy.flying.circus.2011.bdrip.x264-sprinter.nfo ... ": 4941, "holy.flying.circus.2011.bdrip.x264-sprinter.sfv ...
创建时间: 2018-12-23 13:57:03 大小:616.64 MB 文件数量:8 热度:5 最近下载:2022-04-23 06:51:51
    ... ": 9277544, "2 Welcome to the Circus.mp3": 9222169, "1 The Ballad ...
创建时间: 2018-12-23 14:04:54 大小:115.68 MB 文件数量:13 热度:9 最近下载:2025-05-06 13:50:03
    ... Tape Five - Circus Maximus.jpg": 5678974, "Tape Five - Circus Maximus 001. ... ": 11717073, "Tape Five - Circus Maximus 002.jpg": 12556288, ... "Tape Five - Circus Maximus 003.jpg": 6412111, ... ": 4618823, "Tape Five - Circus Maximus(matrix).jpg": 336387}, ...
创建时间: 2018-12-23 14:23:04 大小:372.72 MB 文件数量:11 热度:5 最近下载:2022-04-23 06:51:43
    ... "v_DigitalStrip.ttf": 43372}, "[HorribleSubs] Karakuri Circus - 01 [720p].ass": 28316, ... 720p].mkv": 332775649, "[HorribleSubs] Karakuri Circus - 02 [720p].mkv": 257538041, ... "[HorribleSubs] Karakuri Circus - 03 [720p].mkv": 273728620, ...
创建时间: 2018-12-23 16:08:13 大小:1.8 GB 文件数量:15 热度:5 最近下载:2022-04-23 06:09:37
    ... s.mp3": 10731580, "Bradley's Circus - Pussycat - Bang Bang Wa ... s.mp3": 8001520, "Bradley's Circus - Wasteland - Bang Bang Wa ... s.mp3": 7926352, "Bradley's Circus - Double martini - Bang Bang ... s.mp3": 9882808, "Bradley's Circus - Nil volentibus arduum - Bang ...
创建时间: 2018-12-23 16:39:16 大小:111.89 MB 文件数量:14 热度:5 最近下载:2022-04-23 06:05:59
    {"Downloaded from www.ETTV.tv .txt": 199, "The.Circus.S03E08.HDTV.x264-aAF[ettv].mkv": 163292994}
创建时间: 2018-12-23 17:45:18 大小:155.73 MB 文件数量:2 热度:4 最近下载:2021-06-17 16:24:50
    {"metadata.opf": 2804, "audiobook-sample.mp3": 2399651, "free audiobook version.txt": 366, "A Son of the Circus - John Irving.epub": 2786577}
创建时间: 2018-12-23 17:49:13 大小:4.95 MB 文件数量:4 热度:8 最近下载:2025-06-12 15:23:02
    ... mp3": 8424627}, "1995 - Weepers Circus (EP) [256]": {"folder.jpg": ... mp3": 8206728, "Weepers Circus 1995 Weepers Circus 360.jpg": 9177}, ... jpg": 112642, "Weepers Circus 2005 La Monstrueuse Parade ... ).mp3": 12783801}, "Weepers Circus 500x317 rutracker.org.jpg": ...
创建时间: 2018-12-23 18:05:19 大小:1.23 GB 文件数量:222 热度:4 最近下载:2021-06-17 16:24:50
    {"At the Circus 1939 700MB.avi": 729057280, "At the Circus 1939 700MB.ENG.mp3": 80055168, "At the Circus 1939 700MB.RUS.srt": 9993}
创建时间: 2018-12-23 19:30:01 大小:771.64 MB 文件数量:3 热度:6 最近下载:2025-03-21 15:50:03
    {"01 Disc 1.m4b": 34018337, "02 Disc 2.m4b": 35827636, "03 Disc 3.m4b": 34754000, "04 Disc 4.m4b": 36011745, "05 Disc 5.m4b": 35243977, "06 Disc 6.m4b": 34022819, "07 Disc 7.m4b": 36006633, "08 Disc 8.m4b": 35436752, "09 Disc 9.m4b": 35986988, "10 Disc 10. ...
创建时间: 2018-12-23 20:23:07 大小:362.42 MB 文件数量:11 热度:6 最近下载:2022-04-23 06:00:52
    {"Back.jpg": 872858, "VIDEO_TS": {"VIDEO_TS.BUP": 28672, "VIDEO_TS.IFO": 28672, "VIDEO_TS.VOB": 589981696, "VTS_01_0.BUP": 26624, "VTS_01_0.IFO": 26624, "VTS_01_1.VOB": 944314368, "VTS_02_0.BUP": 51200, "VTS_02_0.IFO": 51200, "VTS_02_1.VOB": 1073520640, " ...
创建时间: 2018-12-23 20:39:35 大小:7.02 GB 文件数量:23 热度:6 最近下载:2025-02-18 20:42:17
    {"sample.mkv": 18219624, "Circus.Fantasticus.2010.HR.PDTV.x264-EXPERiMENTAL.mkv": 950948965, "Circus.Fantasticus.2010.HR.PDTV.x264-EXPERiMENTAL.nfo": 336}
创建时间: 2018-12-23 21:25:30 大小:924.27 MB 文件数量:3 热度:5 最近下载:2022-04-23 06:08:34